PWSweather.com
Personal Weather Stations
Station Observations
WHAKATANE1
Whakatane, WhakataneNZ

WhakataneWhakataneNZ

Lat: -37.960954, Lon: 176.9768

Elevation: 10

Station Type: Lacrosse

Latest ConditionsUpdated 3:45:00 PM GMT+12:12 Sunday, Jan 25, 2015
Currently Today's Max Today's Min Today's Average
Temperature 76.1°F24.5°C 84.6°F29.2°C 61.5°F16.4°C 71.8°F22.1°C
Dew Point 56.7°F13.7°C 65.1°F18.4°C 55.3°F12.9°C 60.2°F15.7°C
Winds 7.8 mph E12.6 kmh E 9.0 mph SE14.5 kmh SE - 4.1 mph 6.6 kmh
Wind Gusts 10.7 mph17.2 kmh 14.5 mph23.3 kmh - -
Humidity 51% 96% 37% 70%
Pressure 30.32 in1026.8 mb 30.41 in1029.8 mb 30.31 in1026.4 mb -
Hour Temp Dew Point Humidity Winds Wind Gusts Pressure Precip Precip Rate Daily Precip Total
03:45 PM 76.1°F24.5°C 56.7°F13.7°C 51% 7.8 mph E12.6 kmh E 10.7 mph17.2 kmh 30.32 in1026.8 mb 0.00 in0.0 mm 0.00 in/hr0.0 mm/hr 0.00 in0.0 mm
03:40 PM 76.3°F24.6°C 56.9°F13.8°C 51% 7.9 mph E12.7 kmh E 10.7 mph17.2 kmh 30.31 in1026.4 mb 0.00 in0.0 mm 0.00 in/hr0.0 mm/hr 0.00 in0.0 mm
03:35 PM 76.6°F24.8°C 56.6°F13.7°C 50% 7.9 mph E12.7 kmh E 10.7 mph17.2 kmh 30.32 in1026.8 mb 0.00 in0.0 mm 0.00 in/hr0.0 mm/hr 0.00 in0.0 mm
03:30 PM 76.8°F24.9°C 57.4°F14.1°C 51% 8.1 mph E13.0 kmh E 12.1 mph19.5 kmh 30.32 in1026.8 mb 0.00 in0.0 mm 0.00 in/hr0.0 mm/hr 0.00 in0.0 mm
03:25 PM 76.8°F24.9°C 56.8°F13.8°C 50% 7.6 mph ESE12.2 kmh ESE 12.1 mph19.5 kmh 30.31 in1026.4 mb 0.00 in0.0 mm 0.00 in/hr0.0 mm/hr 0.00 in0.0 mm
03:20 PM 77.2°F25.1°C 57.1°F13.9°C 50% 7.3 mph SE11.7 kmh SE 12.1 mph19.5 kmh 30.32 in1026.8 mb 0.00 in0.0 mm 0.00 in/hr0.0 mm/hr 0.00 in0.0 mm
03:15 PM 77.2°F25.1°C 57.1°F13.9°C 50% 8.0 mph ESE12.9 kmh ESE 12.1 mph19.5 kmh 30.32 in1026.8 mb 0.00 in0.0 mm 0.00 in/hr0.0 mm/hr 0.00 in0.0 mm
03:10 PM 77.5°F25.3°C 57.5°F14.2°C 50% 7.7 mph E12.4 kmh E 12.1 mph19.5 kmh 30.32 in1026.8 mb 0.00 in0.0 mm 0.00 in/hr0.0 mm/hr 0.00 in0.0 mm
03:05 PM 77.5°F25.3°C 56.9°F13.8°C 49% 7.8 mph E12.6 kmh E 14.5 mph23.3 kmh 30.32 in1026.8 mb 0.00 in0.0 mm 0.00 in/hr0.0 mm/hr 0.00 in0.0 mm
03:00 PM 78.1°F25.6°C 57.4°F14.1°C 49% 8.4 mph E13.5 kmh E 14.5 mph23.3 kmh 30.32 in1026.8 mb 0.00 in0.0 mm 0.00 in/hr0.0 mm/hr 0.00 in0.0 mm
02:55 PM 78.4°F25.8°C 57.2°F14.0°C 48% 7.8 mph E12.6 kmh E 9.2 mph14.8 kmh 30.32 in1026.8 mb 0.00 in0.0 mm 0.00 in/hr0.0 mm/hr 0.00 in0.0 mm
02:50 PM 79.2°F26.2°C 57.2°F14.0°C 47% 7.4 mph ESE11.9 kmh ESE 10.7 mph17.2 kmh 30.33 in1027.1 mb 0.00 in0.0 mm 0.00 in/hr0.0 mm/hr 0.00 in0.0 mm
02:45 PM 79.3°F26.3°C 57.4°F14.1°C 47% 7.8 mph SSE12.6 kmh SSE 10.7 mph17.2 kmh 30.33 in1027.1 mb 0.00 in0.0 mm 0.00 in/hr0.0 mm/hr 0.00 in0.0 mm
02:40 PM 79.5°F26.4°C 57.6°F14.2°C 47% 8.2 mph SSE13.2 kmh SSE 13.0 mph20.9 kmh 30.33 in1027.1 mb 0.00 in0.0 mm 0.00 in/hr0.0 mm/hr 0.00 in0.0 mm
02:35 PM 80.1°F26.7°C 58.1°F14.5°C 47% 8.0 mph SE12.9 kmh SE 13.0 mph20.9 kmh 30.33 in1027.1 mb 0.00 in0.0 mm 0.00 in/hr0.0 mm/hr 0.00 in0.0 mm
02:30 PM 80.4°F26.9°C 58.4°F14.7°C 47% 7.5 mph E12.1 kmh E 10.7 mph17.2 kmh 30.33 in1027.1 mb 0.00 in0.0 mm 0.00 in/hr0.0 mm/hr 0.00 in0.0 mm
02:25 PM 80.6°F27.0°C 58.5°F14.7°C 47% 7.7 mph ESE12.4 kmh ESE 11.4 mph18.3 kmh 30.33 in1027.1 mb 0.00 in0.0 mm 0.00 in/hr0.0 mm/hr 0.00 in0.0 mm
02:20 PM 80.8°F27.1°C 58.7°F14.8°C 47% 7.6 mph ESE12.2 kmh ESE 11.4 mph18.3 kmh 30.33 in1027.1 mb 0.00 in0.0 mm 0.00 in/hr0.0 mm/hr 0.00 in0.0 mm
02:15 PM 80.4°F26.9°C 58.4°F14.7°C 47% 7.2 mph SE11.6 kmh SE 9.2 mph14.8 kmh 30.33 in1027.1 mb 0.00 in0.0 mm 0.00 in/hr0.0 mm/hr 0.00 in0.0 mm
02:10 PM 80.4°F26.9°C 58.4°F14.7°C 47% 7.3 mph SE11.7 kmh SE 10.7 mph17.2 kmh 30.33 in1027.1 mb 0.00 in0.0 mm 0.00 in/hr0.0 mm/hr 0.00 in0.0 mm
02:05 PM 80.2°F26.8°C 58.2°F14.6°C 47% 7.7 mph ESE12.4 kmh ESE 10.7 mph17.2 kmh 30.33 in1027.1 mb 0.00 in0.0 mm 0.00 in/hr0.0 mm/hr 0.00 in0.0 mm
02:00 PM 80.4°F26.9°C 58.4°F14.7°C 47% 7.8 mph ESE12.6 kmh ESE 9.8 mph15.8 kmh 30.34 in1027.4 mb 0.00 in0.0 mm 0.00 in/hr0.0 mm/hr 0.00 in0.0 mm
01:55 PM 80.8°F27.1°C 58.7°F14.8°C 47% 7.9 mph SE12.7 kmh SE 11.4 mph18.3 kmh 30.33 in1027.1 mb 0.00 in0.0 mm 0.00 in/hr0.0 mm/hr 0.00 in0.0 mm
01:50 PM 80.6°F27.0°C 58.5°F14.7°C 47% 8.4 mph E13.5 kmh E 11.4 mph18.3 kmh 30.34 in1027.4 mb 0.00 in0.0 mm 0.00 in/hr0.0 mm/hr 0.00 in0.0 mm
01:45 PM 80.8°F27.1°C 58.7°F14.8°C 47% 8.3 mph E13.4 kmh E 10.7 mph17.2 kmh 30.34 in1027.4 mb 0.00 in0.0 mm 0.00 in/hr0.0 mm/hr 0.00 in0.0 mm
01:40 PM 80.8°F27.1°C 58.7°F14.8°C 47% 7.8 mph ESE12.6 kmh ESE 9.8 mph15.8 kmh 30.34 in1027.4 mb 0.00 in0.0 mm 0.00 in/hr0.0 mm/hr 0.00 in0.0 mm
01:35 PM 80.8°F27.1°C 59.3°F15.2°C 48% 8.2 mph SE13.2 kmh SE 13.0 mph20.9 kmh 30.34 in1027.4 mb 0.00 in0.0 mm 0.00 in/hr0.0 mm/hr 0.00 in0.0 mm
01:30 PM 80.6°F27.0°C 59.1°F15.1°C 48% 8.2 mph SE13.2 kmh SE 13.0 mph20.9 kmh 30.34 in1027.4 mb 0.00 in0.0 mm 0.00 in/hr0.0 mm/hr 0.00 in0.0 mm
01:25 PM 80.8°F27.1°C 59.3°F15.2°C 48% 7.9 mph ESE12.7 kmh ESE 12.1 mph19.5 kmh 30.34 in1027.4 mb 0.00 in0.0 mm 0.00 in/hr0.0 mm/hr 0.00 in0.0 mm
01:20 PM 80.8°F27.1°C 59.9°F15.5°C 49% 8.3 mph SE13.4 kmh SE 12.1 mph19.5 kmh 30.35 in1027.8 mb 0.00 in0.0 mm 0.00 in/hr0.0 mm/hr 0.00 in0.0 mm
01:15 PM 80.6°F27.0°C 59.7°F15.4°C 49% 9.0 mph SE14.5 kmh SE 11.4 mph18.3 kmh 30.34 in1027.4 mb 0.00 in0.0 mm 0.00 in/hr0.0 mm/hr 0.00 in0.0 mm
01:10 PM 80.6°F27.0°C 59.1°F15.1°C 48% 8.0 mph ESE12.9 kmh ESE 11.4 mph18.3 kmh 30.34 in1027.4 mb 0.00 in0.0 mm 0.00 in/hr0.0 mm/hr 0.00 in0.0 mm
01:05 PM 80.6°F27.0°C 59.1°F15.1°C 48% 7.3 mph E11.7 kmh E 9.8 mph15.8 kmh 30.34 in1027.4 mb 0.00 in0.0 mm 0.00 in/hr0.0 mm/hr 0.00 in0.0 mm
01:00 PM 80.8°F27.1°C 59.3°F15.2°C 48% 8.2 mph SE13.2 kmh SE 10.7 mph17.2 kmh 30.34 in1027.4 mb 0.00 in0.0 mm 0.00 in/hr0.0 mm/hr 0.00 in0.0 mm
12:55 PM 81.3°F27.4°C 59.2°F15.1°C 47% 7.6 mph SE12.2 kmh SE 10.7 mph17.2 kmh 30.34 in1027.4 mb 0.00 in0.0 mm 0.00 in/hr0.0 mm/hr 0.00 in0.0 mm
12:50 PM 81.3°F27.4°C 60.4°F15.8°C 49% 7.7 mph ESE12.4 kmh ESE 9.8 mph15.8 kmh 30.34 in1027.4 mb 0.00 in0.0 mm 0.00 in/hr0.0 mm/hr 0.00 in0.0 mm
12:45 PM 81.1°F27.3°C 60.2°F15.7°C 49% 8.7 mph E14.0 kmh E 10.7 mph17.2 kmh 30.34 in1027.4 mb 0.00 in0.0 mm 0.00 in/hr0.0 mm/hr 0.00 in0.0 mm
12:40 PM 81.1°F27.3°C 59.6°F15.3°C 48% 8.6 mph E13.8 kmh E 13.6 mph21.9 kmh 30.34 in1027.4 mb 0.00 in0.0 mm 0.00 in/hr0.0 mm/hr 0.00 in0.0 mm
12:35 PM 81.5°F27.5°C 59.4°F15.2°C 47% 8.1 mph ENE13.0 kmh ENE 13.6 mph21.9 kmh 30.35 in1027.8 mb 0.00 in0.0 mm 0.00 in/hr0.0 mm/hr 0.00 in0.0 mm
12:30 PM 81.9°F27.7°C 60.3°F15.7°C 48% 8.4 mph ENE13.5 kmh ENE 11.4 mph18.3 kmh 30.34 in1027.4 mb 0.00 in0.0 mm 0.00 in/hr0.0 mm/hr 0.00 in0.0 mm
12:25 PM 82.4°F28.0°C 61.4°F16.3°C 49% 8.3 mph E13.4 kmh E 11.4 mph18.3 kmh 30.35 in1027.8 mb 0.00 in0.0 mm 0.00 in/hr0.0 mm/hr 0.00 in0.0 mm
12:20 PM 82.9°F28.3°C 59.5°F15.3°C 45% 7.8 mph ESE12.6 kmh ESE 12.1 mph19.5 kmh 30.35 in1027.8 mb 0.00 in0.0 mm 0.00 in/hr0.0 mm/hr 0.00 in0.0 mm
12:15 PM 83.8°F28.8°C 59.0°F15.0°C 43% 7.6 mph SE12.2 kmh SE 12.1 mph19.5 kmh 30.35 in1027.8 mb 0.00 in0.0 mm 0.00 in/hr0.0 mm/hr 0.00 in0.0 mm
12:10 PM 84.2°F29.0°C 58.7°F14.8°C 42% 7.1 mph ESE11.4 kmh ESE 12.1 mph19.5 kmh 30.35 in1027.8 mb 0.00 in0.0 mm 0.00 in/hr0.0 mm/hr 0.00 in0.0 mm
12:05 PM 84.4°F29.1°C 59.5°F15.3°C 43% 6.3 mph E10.1 kmh E 8.3 mph13.4 kmh 30.35 in1027.8 mb 0.00 in0.0 mm 0.00 in/hr0.0 mm/hr 0.00 in0.0 mm
12:00 PM 84.6°F29.2°C 59.7°F15.4°C 43% 6.2 mph E10.0 kmh E 9.8 mph15.8 kmh 30.35 in1027.8 mb 0.00 in0.0 mm 0.00 in/hr0.0 mm/hr 0.00 in0.0 mm
11:55 AM 84.2°F29.0°C 59.3°F15.2°C 43% 6.8 mph SE10.9 kmh SE 9.8 mph15.8 kmh 30.35 in1027.8 mb 0.00 in0.0 mm 0.00 in/hr0.0 mm/hr 0.00 in0.0 mm
11:50 AM 84.0°F28.9°C 59.2°F15.1°C 43% 7.7 mph SE12.4 kmh SE 11.4 mph18.3 kmh 30.35 in1027.8 mb 0.00 in0.0 mm 0.00 in/hr0.0 mm/hr 0.00 in0.0 mm
11:45 AM 83.8°F28.8°C 58.3°F14.6°C 42% 8.5 mph SE13.7 kmh SE 11.4 mph18.3 kmh 30.35 in1027.8 mb 0.00 in0.0 mm 0.00 in/hr0.0 mm/hr 0.00 in0.0 mm
11:40 AM 84.2°F29.0°C 58.0°F14.4°C 41% 7.8 mph SSE12.6 kmh SSE 10.7 mph17.2 kmh 30.35 in1027.8 mb 0.00 in0.0 mm 0.00 in/hr0.0 mm/hr 0.00 in0.0 mm
11:35 AM 84.2°F29.0°C 57.3°F14.1°C 40% 7.5 mph SSE12.1 kmh SSE 11.4 mph18.3 kmh 30.35 in1027.8 mb 0.00 in0.0 mm 0.00 in/hr0.0 mm/hr 0.00 in0.0 mm
11:30 AM 84.0°F28.9°C 56.4°F13.6°C 39% 8.1 mph SE13.0 kmh SE 11.4 mph18.3 kmh 30.35 in1027.8 mb 0.00 in0.0 mm 0.00 in/hr0.0 mm/hr 0.00 in0.0 mm
11:25 AM 84.0°F28.9°C 56.4°F13.6°C 39% 8.0 mph SE12.9 kmh SE 9.8 mph15.8 kmh 30.35 in1027.8 mb 0.00 in0.0 mm 0.00 in/hr0.0 mm/hr 0.00 in0.0 mm
11:20 AM 84.0°F28.9°C 56.4°F13.6°C 39% 7.8 mph SSE12.6 kmh SSE 9.8 mph15.8 kmh 30.36 in1028.1 mb 0.00 in0.0 mm 0.00 in/hr0.0 mm/hr 0.00 in0.0 mm
11:15 AM 84.4°F29.1°C 55.3°F12.9°C 37% 7.3 mph S11.7 kmh S 9.8 mph15.8 kmh 30.36 in1028.1 mb 0.00 in0.0 mm 0.00 in/hr0.0 mm/hr 0.00 in0.0 mm
11:10 AM 84.4°F29.1°C 56.8°F13.8°C 39% 7.2 mph SSE11.6 kmh SSE 9.8 mph15.8 kmh 30.36 in1028.1 mb 0.00 in0.0 mm 0.00 in/hr0.0 mm/hr 0.00 in0.0 mm
11:05 AM 84.6°F29.2°C 56.9°F13.8°C 39% 6.8 mph SSE10.9 kmh SSE 9.8 mph15.8 kmh 30.36 in1028.1 mb 0.00 in0.0 mm 0.00 in/hr0.0 mm/hr 0.00 in0.0 mm
11:00 AM 84.0°F28.9°C 58.5°F14.7°C 42% 7.0 mph SE11.3 kmh SE 10.7 mph17.2 kmh 30.36 in1028.1 mb 0.00 in0.0 mm 0.00 in/hr0.0 mm/hr 0.00 in0.0 mm
10:55 AM 84.0°F28.9°C 58.5°F14.7°C 42% 6.8 mph ESE10.9 kmh ESE 10.7 mph17.2 kmh 30.36 in1028.1 mb 0.00 in0.0 mm 0.00 in/hr0.0 mm/hr 0.00 in0.0 mm
10:50 AM 84.2°F29.0°C 58.7°F14.8°C 42% 7.1 mph E11.4 kmh E 12.1 mph19.5 kmh 30.36 in1028.1 mb 0.00 in0.0 mm 0.00 in/hr0.0 mm/hr 0.00 in0.0 mm
10:45 AM 84.0°F28.9°C 59.2°F15.1°C 43% 7.5 mph ESE12.1 kmh ESE 12.1 mph19.5 kmh 30.37 in1028.4 mb 0.00 in0.0 mm 0.00 in/hr0.0 mm/hr 0.00 in0.0 mm
10:40 AM 83.8°F28.8°C 58.3°F14.6°C 42% 6.3 mph E10.1 kmh E 12.1 mph19.5 kmh 30.37 in1028.4 mb 0.00 in0.0 mm 0.00 in/hr0.0 mm/hr 0.00 in0.0 mm
10:35 AM 83.5°F28.6°C 59.3°F15.2°C 44% 6.4 mph ESE10.3 kmh ESE 10.7 mph17.2 kmh 30.37 in1028.4 mb 0.00 in0.0 mm 0.00 in/hr0.0 mm/hr 0.00 in0.0 mm
10:30 AM 83.1°F28.4°C 58.4°F14.7°C 43% 7.2 mph SSE11.6 kmh SSE 10.7 mph17.2 kmh 30.37 in1028.4 mb 0.00 in0.0 mm 0.00 in/hr0.0 mm/hr 0.00 in0.0 mm
10:25 AM 82.6°F28.1°C 60.4°F15.8°C 47% 7.1 mph SE11.4 kmh SE 10.7 mph17.2 kmh 30.37 in1028.4 mb 0.00 in0.0 mm 0.00 in/hr0.0 mm/hr 0.00 in0.0 mm
10:20 AM 81.7°F27.6°C 61.3°F16.3°C 50% 6.5 mph ESE10.5 kmh ESE 8.3 mph13.4 kmh 30.38 in1028.8 mb 0.00 in0.0 mm 0.00 in/hr0.0 mm/hr 0.00 in0.0 mm
10:15 AM 80.4°F26.9°C 61.8°F16.6°C 53% 6.6 mph ESE10.6 kmh ESE 9.2 mph14.8 kmh 30.38 in1028.8 mb 0.00 in0.0 mm 0.00 in/hr0.0 mm/hr 0.00 in0.0 mm
10:10 AM 79.7°F26.5°C 61.6°F16.4°C 54% 6.4 mph E10.3 kmh E 9.2 mph14.8 kmh 30.38 in1028.8 mb 0.00 in0.0 mm 0.00 in/hr0.0 mm/hr 0.00 in0.0 mm
10:05 AM 78.8°F26.0°C 60.8°F16.0°C 54% 6.0 mph ESE9.7 kmh ESE 8.3 mph13.4 kmh 30.38 in1028.8 mb 0.00 in0.0 mm 0.00 in/hr0.0 mm/hr 0.00 in0.0 mm
10:00 AM 78.3°F25.7°C 61.3°F16.3°C 56% 5.6 mph E9.0 kmh E 8.3 mph13.4 kmh 30.38 in1028.8 mb 0.00 in0.0 mm 0.00 in/hr0.0 mm/hr 0.00 in0.0 mm
09:55 AM 77.4°F25.2°C 60.5°F15.8°C 56% 5.6 mph ESE9.0 kmh ESE 7.6 mph12.2 kmh 30.38 in1028.8 mb 0.00 in0.0 mm 0.00 in/hr0.0 mm/hr 0.00 in0.0 mm
09:50 AM 77.0°F25.0°C 60.1°F15.6°C 56% 6.1 mph SE9.8 kmh SE 8.3 mph13.4 kmh 30.37 in1028.4 mb 0.00 in0.0 mm 0.00 in/hr0.0 mm/hr 0.00 in0.0 mm
09:45 AM 77.0°F25.0°C 61.1°F16.2°C 58% 4.3 mph SE6.9 kmh SE 8.3 mph13.4 kmh 30.38 in1028.8 mb 0.00 in0.0 mm 0.00 in/hr0.0 mm/hr 0.00 in0.0 mm
09:40 AM 76.6°F24.8°C 61.3°F16.3°C 59% 2.7 mph SE4.3 kmh SE 6.9 mph11.1 kmh 30.38 in1028.8 mb 0.00 in0.0 mm 0.00 in/hr0.0 mm/hr 0.00 in0.0 mm
09:35 AM 75.9°F24.4°C 62.0°F16.7°C 62% 3.6 mph SSE5.8 kmh SSE 6.0 mph9.7 kmh 30.38 in1028.8 mb 0.00 in0.0 mm 0.00 in/hr0.0 mm/hr 0.00 in0.0 mm
09:30 AM 75.4°F24.1°C 61.5°F16.4°C 62% 4.9 mph ESE7.9 kmh ESE 9.8 mph15.8 kmh 30.38 in1028.8 mb 0.00 in0.0 mm 0.00 in/hr0.0 mm/hr 0.00 in0.0 mm
09:25 AM 75.2°F24.0°C 61.8°F16.6°C 63% 4.2 mph E6.8 kmh E 9.8 mph15.8 kmh 30.38 in1028.8 mb 0.00 in0.0 mm 0.00 in/hr0.0 mm/hr 0.00 in0.0 mm
09:20 AM 74.8°F23.8°C 61.4°F16.3°C 63% 1.9 mph ESE3.1 kmh ESE 3.8 mph6.1 kmh 30.38 in1028.8 mb 0.00 in0.0 mm 0.00 in/hr0.0 mm/hr 0.00 in0.0 mm
09:15 AM 74.7°F23.7°C 61.3°F16.3°C 63% 1.0 mph NNE1.6 kmh NNE 1.6 mph2.6 kmh 30.38 in1028.8 mb 0.00 in0.0 mm 0.00 in/hr0.0 mm/hr 0.00 in0.0 mm
09:10 AM 74.5°F23.6°C 61.1°F16.2°C 63% 0.9 mph NNE1.4 kmh NNE 1.6 mph2.6 kmh 30.38 in1028.8 mb 0.00 in0.0 mm 0.00 in/hr0.0 mm/hr 0.00 in0.0 mm
09:05 AM 74.1°F23.4°C 61.2°F16.2°C 64% 1.2 mph NNE1.9 kmh NNE 2.2 mph3.5 kmh 30.39 in1029.1 mb 0.00 in0.0 mm 0.00 in/hr0.0 mm/hr 0.00 in0.0 mm
09:00 AM 73.9°F23.3°C 61.0°F16.1°C 64% 2.3 mph N3.7 kmh N 3.8 mph6.1 kmh 30.39 in1029.1 mb 0.00 in0.0 mm 0.00 in/hr0.0 mm/hr 0.00 in0.0 mm
08:55 AM 74.1°F23.4°C 60.8°F16.0°C 63% 2.8 mph NW4.5 kmh NW 3.8 mph6.1 kmh 30.39 in1029.1 mb 0.00 in0.0 mm 0.00 in/hr0.0 mm/hr 0.00 in0.0 mm
08:50 AM 74.7°F23.7°C 62.1°F16.7°C 65% 2.9 mph NNW4.7 kmh NNW 4.5 mph7.2 kmh 30.38 in1028.8 mb 0.00 in0.0 mm 0.00 in/hr0.0 mm/hr 0.00 in0.0 mm
08:45 AM 74.7°F23.7°C 62.6°F17.0°C 66% 3.2 mph NW5.1 kmh NW 4.5 mph7.2 kmh 30.39 in1029.1 mb 0.00 in0.0 mm 0.00 in/hr0.0 mm/hr 0.00 in0.0 mm
08:40 AM 74.5°F23.6°C 63.3°F17.4°C 68% 3.1 mph NW5.0 kmh NW 4.5 mph7.2 kmh 30.39 in1029.1 mb 0.00 in0.0 mm 0.00 in/hr0.0 mm/hr 0.00 in0.0 mm
08:35 AM 73.6°F23.1°C 62.8°F17.1°C 69% 3.2 mph NW5.1 kmh NW 4.5 mph7.2 kmh 30.39 in1029.1 mb 0.00 in0.0 mm 0.00 in/hr0.0 mm/hr 0.00 in0.0 mm
08:30 AM 73.0°F22.8°C 62.7°F17.1°C 70% 3.5 mph NW5.6 kmh NW 4.5 mph7.2 kmh 30.39 in1029.1 mb 0.00 in0.0 mm 0.00 in/hr0.0 mm/hr 0.00 in0.0 mm
08:25 AM 72.9°F22.7°C 62.1°F16.7°C 69% 3.4 mph NW5.5 kmh NW 4.5 mph7.2 kmh 30.39 in1029.1 mb 0.00 in0.0 mm 0.00 in/hr0.0 mm/hr 0.00 in0.0 mm
08:20 AM 72.9°F22.7°C 62.1°F16.7°C 69% 3.4 mph NW5.5 kmh NW 4.5 mph7.2 kmh 30.39 in1029.1 mb 0.00 in0.0 mm 0.00 in/hr0.0 mm/hr 0.00 in0.0 mm
08:15 AM 73.0°F22.8°C 62.7°F17.1°C 70% 3.4 mph NNW5.5 kmh NNW 4.5 mph7.2 kmh 30.39 in1029.1 mb 0.00 in0.0 mm 0.00 in/hr0.0 mm/hr 0.00 in0.0 mm
08:10 AM 72.9°F22.7°C 62.5°F16.9°C 70% 3.4 mph NNW5.5 kmh NNW 4.5 mph7.2 kmh 30.39 in1029.1 mb 0.00 in0.0 mm 0.00 in/hr0.0 mm/hr 0.00 in0.0 mm
08:05 AM 73.2°F22.9°C 62.5°F16.9°C 69% 3.7 mph NW6.0 kmh NW 5.4 mph8.7 kmh 30.39 in1029.1 mb 0.00 in0.0 mm 0.00 in/hr0.0 mm/hr 0.00 in0.0 mm
08:00 AM 73.8°F23.2°C 63.0°F17.2°C 69% 3.5 mph NW5.6 kmh NW 5.4 mph8.7 kmh 30.39 in1029.1 mb 0.00 in0.0 mm 0.00 in/hr0.0 mm/hr 0.00 in0.0 mm
07:55 AM 73.9°F23.3°C 63.6°F17.6°C 70% 3.7 mph NW6.0 kmh NW 6.0 mph9.7 kmh 30.39 in1029.1 mb 0.00 in0.0 mm 0.00 in/hr0.0 mm/hr 0.00 in0.0 mm
07:50 AM 74.3°F23.5°C 64.3°F17.9°C 71% 4.3 mph WNW6.9 kmh WNW 6.9 mph11.1 kmh 30.39 in1029.1 mb 0.00 in0.0 mm 0.00 in/hr0.0 mm/hr 0.00 in0.0 mm
07:45 AM 73.9°F23.3°C 64.8°F18.2°C 73% 4.1 mph W6.6 kmh W 6.9 mph11.1 kmh 30.39 in1029.1 mb 0.00 in0.0 mm 0.00 in/hr0.0 mm/hr 0.00 in0.0 mm
07:40 AM 73.0°F22.8°C 65.1°F18.4°C 76% 3.2 mph WSW5.1 kmh WSW 6.9 mph11.1 kmh 30.39 in1029.1 mb 0.00 in0.0 mm 0.00 in/hr0.0 mm/hr 0.00 in0.0 mm
07:35 AM 71.6°F22.0°C 64.8°F18.2°C 79% 2.2 mph SW3.5 kmh SW 4.5 mph7.2 kmh 30.39 in1029.1 mb 0.00 in0.0 mm 0.00 in/hr0.0 mm/hr 0.00 in0.0 mm
07:30 AM 70.0°F21.1°C 63.9°F17.7°C 81% 1.7 mph SW2.7 kmh SW 2.2 mph3.5 kmh 30.39 in1029.1 mb 0.00 in0.0 mm 0.00 in/hr0.0 mm/hr 0.00 in0.0 mm
07:25 AM 69.1°F20.6°C 63.4°F17.4°C 82% 1.5 mph SW2.4 kmh SW 2.2 mph3.5 kmh 30.38 in1028.8 mb 0.00 in0.0 mm 0.00 in/hr0.0 mm/hr 0.00 in0.0 mm
07:20 AM 68.5°F20.3°C 63.2°F17.3°C 83% 1.6 mph SW2.6 kmh SW 2.2 mph3.5 kmh 30.39 in1029.1 mb 0.00 in0.0 mm 0.00 in/hr0.0 mm/hr 0.00 in0.0 mm
07:15 AM 68.4°F20.2°C 63.0°F17.2°C 83% 2.3 mph WSW3.7 kmh WSW 3.8 mph6.1 kmh 30.38 in1028.8 mb 0.00 in0.0 mm 0.00 in/hr0.0 mm/hr 0.00 in0.0 mm
07:10 AM 68.4°F20.2°C 63.7°F17.6°C 85% 2.8 mph WNW4.5 kmh WNW 3.8 mph6.1 kmh 30.39 in1029.1 mb 0.00 in0.0 mm 0.00 in/hr0.0 mm/hr 0.00 in0.0 mm
07:05 AM 68.0°F20.0°C 64.0°F17.8°C 87% 2.7 mph NW4.3 kmh NW 3.8 mph6.1 kmh 30.39 in1029.1 mb 0.00 in0.0 mm 0.00 in/hr0.0 mm/hr 0.00 in0.0 mm
07:00 AM 67.5°F19.7°C 64.1°F17.8°C 89% 2.4 mph W3.9 kmh W 3.1 mph5.0 kmh 30.39 in1029.1 mb 0.00 in0.0 mm 0.00 in/hr0.0 mm/hr 0.00 in0.0 mm
06:55 AM 66.6°F19.2°C 64.2°F17.9°C 92% 1.9 mph SW3.1 kmh SW 2.2 mph3.5 kmh 30.39 in1029.1 mb 0.00 in0.0 mm 0.00 in/hr0.0 mm/hr 0.00 in0.0 mm
06:50 AM 65.3°F18.5°C 63.2°F17.3°C 93% 1.9 mph SW3.1 kmh SW 3.1 mph5.0 kmh 30.39 in1029.1 mb 0.00 in0.0 mm 0.00 in/hr0.0 mm/hr 0.00 in0.0 mm
06:45 AM 64.2°F17.9°C 62.5°F16.9°C 94% 2.8 mph SW4.5 kmh SW 3.8 mph6.1 kmh 30.39 in1029.1 mb 0.00 in0.0 mm 0.00 in/hr0.0 mm/hr 0.00 in0.0 mm
06:40 AM 63.7°F17.6°C 61.9°F16.6°C 94% 3.0 mph SW4.8 kmh SW 4.5 mph7.2 kmh 30.39 in1029.1 mb 0.00 in0.0 mm 0.00 in/hr0.0 mm/hr 0.00 in0.0 mm
06:35 AM 63.1°F17.3°C 61.7°F16.5°C 95% 2.5 mph WSW4.0 kmh WSW 4.5 mph7.2 kmh 30.38 in1028.8 mb 0.00 in0.0 mm 0.00 in/hr0.0 mm/hr 0.00 in0.0 mm
06:30 AM 62.8°F17.1°C 61.3°F16.3°C 95% 2.9 mph NW4.7 kmh NW 4.5 mph7.2 kmh 30.38 in1028.8 mb 0.00 in0.0 mm 0.00 in/hr0.0 mm/hr 0.00 in0.0 mm
06:25 AM 62.4°F16.9°C 61.0°F16.1°C 95% 3.1 mph NW5.0 kmh NW 4.5 mph7.2 kmh 30.38 in1028.8 mb 0.00 in0.0 mm 0.00 in/hr0.0 mm/hr 0.00 in0.0 mm
06:20 AM 62.4°F16.9°C 61.0°F16.1°C 95% 2.3 mph NW3.7 kmh NW 4.5 mph7.2 kmh 30.38 in1028.8 mb 0.00 in0.0 mm 0.00 in/hr0.0 mm/hr 0.00 in0.0 mm
06:15 AM 62.2°F16.8°C 60.8°F16.0°C 95% 2.0 mph NW3.2 kmh NW 3.1 mph5.0 kmh 30.38 in1028.8 mb 0.00 in0.0 mm 0.00 in/hr0.0 mm/hr 0.00 in0.0 mm
06:10 AM 62.1°F16.7°C 60.9°F16.1°C 96% 2.5 mph NW4.0 kmh NW 4.5 mph7.2 kmh 30.38 in1028.8 mb 0.00 in0.0 mm 0.00 in/hr0.0 mm/hr 0.00 in0.0 mm
06:05 AM 61.9°F16.6°C 60.7°F15.9°C 96% 3.1 mph W5.0 kmh W 5.4 mph8.7 kmh 30.38 in1028.8 mb 0.00 in0.0 mm 0.00 in/hr0.0 mm/hr 0.00 in0.0 mm
06:00 AM 61.7°F16.5°C 60.6°F15.9°C 96% 3.3 mph WSW5.3 kmh WSW 5.4 mph8.7 kmh 30.38 in1028.8 mb 0.00 in0.0 mm 0.00 in/hr0.0 mm/hr 0.00 in0.0 mm
05:55 AM 61.7°F16.5°C 60.3°F15.7°C 95% 3.6 mph WNW5.8 kmh WNW 5.4 mph8.7 kmh 30.38 in1028.8 mb 0.00 in0.0 mm 0.00 in/hr0.0 mm/hr 0.00 in0.0 mm
05:50 AM 61.5°F16.4°C 60.1°F15.6°C 95% 3.6 mph NW5.8 kmh NW 5.4 mph8.7 kmh 30.38 in1028.8 mb 0.00 in0.0 mm 0.00 in/hr0.0 mm/hr 0.00 in0.0 mm
05:45 AM 61.5°F16.4°C 60.1°F15.6°C 95% 3.5 mph NW5.6 kmh NW 3.8 mph6.1 kmh 30.38 in1028.8 mb 0.00 in0.0 mm 0.00 in/hr0.0 mm/hr 0.00 in0.0 mm
05:40 AM 61.5°F16.4°C 60.1°F15.6°C 95% 3.0 mph NW4.8 kmh NW 3.8 mph6.1 kmh 30.38 in1028.8 mb 0.00 in0.0 mm 0.00 in/hr0.0 mm/hr 0.00 in0.0 mm
05:35 AM 61.7°F16.5°C 60.3°F15.7°C 95% 3.0 mph WNW4.8 kmh WNW 4.5 mph7.2 kmh 30.38 in1028.8 mb 0.00 in0.0 mm 0.00 in/hr0.0 mm/hr 0.00 in0.0 mm
05:30 AM 61.7°F16.5°C 60.0°F15.6°C 94% 3.6 mph W5.8 kmh W 4.5 mph7.2 kmh 30.38 in1028.8 mb 0.00 in0.0 mm 0.00 in/hr0.0 mm/hr 0.00 in0.0 mm
05:25 AM 61.7°F16.5°C 60.0°F15.6°C 94% 3.2 mph WNW5.1 kmh WNW 4.5 mph7.2 kmh 30.38 in1028.8 mb 0.00 in0.0 mm 0.00 in/hr0.0 mm/hr 0.00 in0.0 mm
05:20 AM 61.9°F16.6°C 60.2°F15.7°C 94% 3.4 mph W5.5 kmh W 5.4 mph8.7 kmh 30.37 in1028.4 mb 0.00 in0.0 mm 0.00 in/hr0.0 mm/hr 0.00 in0.0 mm
05:15 AM 61.9°F16.6°C 60.2°F15.7°C 94% 3.5 mph SW5.6 kmh SW 5.4 mph8.7 kmh 30.38 in1028.8 mb 0.00 in0.0 mm 0.00 in/hr0.0 mm/hr 0.00 in0.0 mm
05:10 AM 62.1°F16.7°C 60.3°F15.7°C 94% 3.1 mph SW5.0 kmh SW 5.4 mph8.7 kmh 30.37 in1028.4 mb 0.00 in0.0 mm 0.00 in/hr0.0 mm/hr 0.00 in0.0 mm
05:05 AM 62.1°F16.7°C 60.3°F15.7°C 94% 3.2 mph SW5.1 kmh SW 3.8 mph6.1 kmh 30.37 in1028.4 mb 0.00 in0.0 mm 0.00 in/hr0.0 mm/hr 0.00 in0.0 mm
05:00 AM 62.1°F16.7°C 60.0°F15.6°C 93% 3.1 mph SW5.0 kmh SW 3.8 mph6.1 kmh 30.37 in1028.4 mb 0.00 in0.0 mm 0.00 in/hr0.0 mm/hr 0.00 in0.0 mm
04:55 AM 62.1°F16.7°C 60.0°F15.6°C 93% 3.0 mph SW4.8 kmh SW 4.5 mph7.2 kmh 30.37 in1028.4 mb 0.00 in0.0 mm 0.00 in/hr0.0 mm/hr 0.00 in0.0 mm
04:50 AM 61.9°F16.6°C 59.9°F15.5°C 93% 2.2 mph SW3.5 kmh SW 4.5 mph7.2 kmh 30.37 in1028.4 mb 0.00 in0.0 mm 0.00 in/hr0.0 mm/hr 0.00 in0.0 mm
04:45 AM 61.9°F16.6°C 59.5°F15.3°C 92% 0.9 mph SW1.4 kmh SW 2.2 mph3.5 kmh 30.37 in1028.4 mb 0.00 in0.0 mm 0.00 in/hr0.0 mm/hr 0.00 in0.0 mm
04:40 AM 62.1°F16.7°C 59.7°F15.4°C 92% 0.5 mph SW0.8 kmh SW 1.6 mph2.6 kmh 30.37 in1028.4 mb 0.00 in0.0 mm 0.00 in/hr0.0 mm/hr 0.00 in0.0 mm
04:35 AM 62.2°F16.8°C 59.9°F15.5°C 92% 0.6 mph SW1.0 kmh SW 1.6 mph2.6 kmh 30.37 in1028.4 mb 0.00 in0.0 mm 0.00 in/hr0.0 mm/hr 0.00 in0.0 mm
04:30 AM 62.4°F16.9°C 60.1°F15.6°C 92% 0.9 mph SW1.4 kmh SW 1.6 mph2.6 kmh 30.37 in1028.4 mb 0.00 in0.0 mm 0.00 in/hr0.0 mm/hr 0.00 in0.0 mm
04:25 AM 62.4°F16.9°C 60.1°F15.6°C 92% 1.0 mph SW1.6 kmh SW 1.6 mph2.6 kmh 30.37 in1028.4 mb 0.00 in0.0 mm 0.00 in/hr0.0 mm/hr 0.00 in0.0 mm
04:20 AM 62.4°F16.9°C 59.8°F15.4°C 91% 0.7 mph SW1.1 kmh SW 0.7 mph1.1 kmh 30.37 in1028.4 mb 0.00 in0.0 mm 0.00 in/hr0.0 mm/hr 0.00 in0.0 mm
04:15 AM 62.6°F17.0°C 60.0°F15.6°C 91% 0.9 mph SW1.4 kmh SW 1.6 mph2.6 kmh 30.37 in1028.4 mb 0.00 in0.0 mm 0.00 in/hr0.0 mm/hr 0.00 in0.0 mm
04:10 AM 62.6°F17.0°C 60.0°F15.6°C 91% 1.1 mph SW1.8 kmh SW 1.6 mph2.6 kmh 30.37 in1028.4 mb 0.00 in0.0 mm 0.00 in/hr0.0 mm/hr 0.00 in0.0 mm
04:05 AM 62.8°F17.1°C 60.1°F15.6°C 91% 1.0 mph SW1.6 kmh SW 1.6 mph2.6 kmh 30.37 in1028.4 mb 0.00 in0.0 mm 0.00 in/hr0.0 mm/hr 0.00 in0.0 mm
04:00 AM 62.8°F17.1°C 60.1°F15.6°C 91% 0.6 mph SW1.0 kmh SW 1.6 mph2.6 kmh 30.37 in1028.4 mb 0.00 in0.0 mm 0.00 in/hr0.0 mm/hr 0.00 in0.0 mm
03:55 AM 63.0°F17.2°C 60.0°F15.6°C 90% 0.5 mph SW0.8 kmh SW 1.6 mph2.6 kmh 30.37 in1028.4 mb 0.00 in0.0 mm 0.00 in/hr0.0 mm/hr 0.00 in0.0 mm
03:50 AM 63.0°F17.2°C 60.0°F15.6°C 90% 1.1 mph SW1.8 kmh SW 2.2 mph3.5 kmh 30.36 in1028.1 mb 0.00 in0.0 mm 0.00 in/hr0.0 mm/hr 0.00 in0.0 mm
03:45 AM 63.1°F17.3°C 60.2°F15.7°C 90% 1.4 mph SW2.3 kmh SW 2.2 mph3.5 kmh 30.37 in1028.4 mb 0.00 in0.0 mm 0.00 in/hr0.0 mm/hr 0.00 in0.0 mm
03:40 AM 63.3°F17.4°C 60.7°F15.9°C 91% 1.3 mph SW2.1 kmh SW 2.2 mph3.5 kmh 30.37 in1028.4 mb 0.00 in0.0 mm 0.00 in/hr0.0 mm/hr 0.00 in0.0 mm
03:35 AM 63.3°F17.4°C 60.7°F15.9°C 91% 1.4 mph SW2.3 kmh SW 2.2 mph3.5 kmh 30.37 in1028.4 mb 0.00 in0.0 mm 0.00 in/hr0.0 mm/hr 0.00 in0.0 mm
03:30 AM 63.3°F17.4°C 60.7°F15.9°C 91% 1.2 mph W1.9 kmh W 1.6 mph2.6 kmh 30.37 in1028.4 mb 0.00 in0.0 mm 0.00 in/hr0.0 mm/hr 0.00 in0.0 mm
03:25 AM 63.3°F17.4°C 60.7°F15.9°C 91% 1.2 mph W1.9 kmh W 2.2 mph3.5 kmh 30.37 in1028.4 mb 0.00 in0.0 mm 0.00 in/hr0.0 mm/hr 0.00 in0.0 mm
03:20 AM 63.3°F17.4°C 60.7°F15.9°C 91% 1.3 mph NW2.1 kmh NW 2.2 mph3.5 kmh 30.37 in1028.4 mb 0.00 in0.0 mm 0.00 in/hr0.0 mm/hr 0.00 in0.0 mm
03:15 AM 63.1°F17.3°C 60.5°F15.8°C 91% 1.5 mph NW2.4 kmh NW 2.2 mph3.5 kmh 30.37 in1028.4 mb 0.00 in0.0 mm 0.00 in/hr0.0 mm/hr 0.00 in0.0 mm
03:10 AM 63.1°F17.3°C 60.5°F15.8°C 91% 1.4 mph WSW2.3 kmh WSW 2.2 mph3.5 kmh 30.37 in1028.4 mb 0.00 in0.0 mm 0.00 in/hr0.0 mm/hr 0.00 in0.0 mm
03:05 AM 63.1°F17.3°C 60.2°F15.7°C 90% 1.2 mph W1.9 kmh W 1.6 mph2.6 kmh 30.37 in1028.4 mb 0.00 in0.0 mm 0.00 in/hr0.0 mm/hr 0.00 in0.0 mm
03:00 AM 63.0°F17.2°C 60.0°F15.6°C 90% 1.1 mph NW1.8 kmh NW 1.6 mph2.6 kmh 30.37 in1028.4 mb 0.00 in0.0 mm 0.00 in/hr0.0 mm/hr 0.00 in0.0 mm
02:55 AM 63.1°F17.3°C 60.2°F15.7°C 90% 1.1 mph NW1.8 kmh NW 1.6 mph2.6 kmh 30.37 in1028.4 mb 0.00 in0.0 mm 0.00 in/hr0.0 mm/hr 0.00 in0.0 mm
02:50 AM 63.1°F17.3°C 60.2°F15.7°C 90% 1.1 mph NW1.8 kmh NW 1.6 mph2.6 kmh 30.37 in1028.4 mb 0.00 in0.0 mm 0.00 in/hr0.0 mm/hr 0.00 in0.0 mm
02:45 AM 63.3°F17.4°C 60.4°F15.8°C 90% 1.1 mph NW1.8 kmh NW 1.6 mph2.6 kmh 30.38 in1028.8 mb 0.00 in0.0 mm 0.00 in/hr0.0 mm/hr 0.00 in0.0 mm
02:40 AM 63.5°F17.5°C 60.5°F15.8°C 90% 1.1 mph NW1.8 kmh NW 1.6 mph2.6 kmh 30.38 in1028.8 mb 0.00 in0.0 mm 0.00 in/hr0.0 mm/hr 0.00 in0.0 mm
02:35 AM 63.5°F17.5°C 60.5°F15.8°C 90% 1.2 mph NW1.9 kmh NW 1.6 mph2.6 kmh 30.38 in1028.8 mb 0.00 in0.0 mm 0.00 in/hr0.0 mm/hr 0.00 in0.0 mm
02:30 AM 63.5°F17.5°C 60.5°F15.8°C 90% 1.4 mph NW2.3 kmh NW 1.6 mph2.6 kmh 30.39 in1029.1 mb 0.00 in0.0 mm 0.00 in/hr0.0 mm/hr 0.00 in0.0 mm
02:25 AM 63.5°F17.5°C 60.8°F16.0°C 91% 1.2 mph NW1.9 kmh NW 2.2 mph3.5 kmh 30.38 in1028.8 mb 0.00 in0.0 mm 0.00 in/hr0.0 mm/hr 0.00 in0.0 mm
02:20 AM 63.5°F17.5°C 60.5°F15.8°C 90% 1.1 mph W1.8 kmh W 2.2 mph3.5 kmh 30.39 in1029.1 mb 0.00 in0.0 mm 0.00 in/hr0.0 mm/hr 0.00 in0.0 mm
02:15 AM 63.3°F17.4°C 60.4°F15.8°C 90% 1.8 mph W2.9 kmh W 3.1 mph5.0 kmh 30.39 in1029.1 mb 0.00 in0.0 mm 0.00 in/hr0.0 mm/hr 0.00 in0.0 mm
02:10 AM 63.3°F17.4°C 60.4°F15.8°C 90% 2.4 mph W3.9 kmh W 3.1 mph5.0 kmh 30.39 in1029.1 mb 0.00 in0.0 mm 0.00 in/hr0.0 mm/hr 0.00 in0.0 mm
02:05 AM 63.3°F17.4°C 60.0°F15.6°C 89% 2.0 mph NW3.2 kmh NW 3.1 mph5.0 kmh 30.39 in1029.1 mb 0.00 in0.0 mm 0.00 in/hr0.0 mm/hr 0.00 in0.0 mm
02:00 AM 63.3°F17.4°C 60.0°F15.6°C 89% 1.5 mph N2.4 kmh N 2.2 mph3.5 kmh 30.39 in1029.1 mb 0.00 in0.0 mm 0.00 in/hr0.0 mm/hr 0.00 in0.0 mm
01:55 AM 63.5°F17.5°C 59.9°F15.5°C 88% 1.4 mph N2.3 kmh N 2.2 mph3.5 kmh 30.39 in1029.1 mb 0.00 in0.0 mm 0.00 in/hr0.0 mm/hr 0.00 in0.0 mm
01:50 AM 63.9°F17.7°C 59.9°F15.5°C 87% 1.0 mph N1.6 kmh N 2.2 mph3.5 kmh 30.39 in1029.1 mb 0.00 in0.0 mm 0.00 in/hr0.0 mm/hr 0.00 in0.0 mm
01:45 AM 64.0°F17.8°C 60.1°F15.6°C 87% 1.0 mph N1.6 kmh N 1.6 mph2.6 kmh 30.39 in1029.1 mb 0.00 in0.0 mm 0.00 in/hr0.0 mm/hr 0.00 in0.0 mm
01:40 AM 64.4°F18.0°C 60.1°F15.6°C 86% 1.0 mph N1.6 kmh N 1.6 mph2.6 kmh 30.39 in1029.1 mb 0.00 in0.0 mm 0.00 in/hr0.0 mm/hr 0.00 in0.0 mm
01:35 AM 64.6°F18.1°C 60.3°F15.7°C 86% 1.1 mph N1.8 kmh N 1.6 mph2.6 kmh 30.39 in1029.1 mb 0.00 in0.0 mm 0.00 in/hr0.0 mm/hr 0.00 in0.0 mm
01:30 AM 64.8°F18.2°C 60.2°F15.7°C 85% 0.9 mph NNW1.4 kmh NNW 1.6 mph2.6 kmh 30.39 in1029.1 mb 0.00 in0.0 mm 0.00 in/hr0.0 mm/hr 0.00 in0.0 mm
01:25 AM 64.9°F18.3°C 60.3°F15.7°C 85% 0.4 mph NW0.6 kmh NW 1.6 mph2.6 kmh 30.39 in1029.1 mb 0.00 in0.0 mm 0.00 in/hr0.0 mm/hr 0.00 in0.0 mm
01:20 AM 65.1°F18.4°C 60.5°F15.8°C 85% 0.5 mph NW0.8 kmh NW 1.6 mph2.6 kmh 30.39 in1029.1 mb 0.00 in0.0 mm 0.00 in/hr0.0 mm/hr 0.00 in0.0 mm
01:15 AM 65.1°F18.4°C 60.5°F15.8°C 85% 0.8 mph NW1.3 kmh NW 1.6 mph2.6 kmh 30.39 in1029.1 mb 0.00 in0.0 mm 0.00 in/hr0.0 mm/hr 0.00 in0.0 mm
01:10 AM 65.1°F18.4°C 60.5°F15.8°C 85% 1.1 mph WNW1.8 kmh WNW 1.6 mph2.6 kmh 30.39 in1029.1 mb 0.00 in0.0 mm 0.00 in/hr0.0 mm/hr 0.00 in0.0 mm
01:05 AM 65.1°F18.4°C 60.5°F15.8°C 85% 2.0 mph WNW3.2 kmh WNW 3.1 mph5.0 kmh 30.39 in1029.1 mb 0.00 in0.0 mm 0.00 in/hr0.0 mm/hr 0.00 in0.0 mm
01:00 AM 65.1°F18.4°C 60.5°F15.8°C 85% 2.9 mph WNW4.7 kmh WNW 3.8 mph6.1 kmh 30.39 in1029.1 mb 0.00 in0.0 mm 0.00 in/hr0.0 mm/hr 0.00 in0.0 mm
12:55 AM 65.1°F18.4°C 60.5°F15.8°C 85% 2.7 mph NW4.3 kmh NW 3.8 mph6.1 kmh 30.39 in1029.1 mb 0.00 in0.0 mm 0.00 in/hr0.0 mm/hr 0.00 in0.0 mm
12:50 AM 65.1°F18.4°C 60.5°F15.8°C 85% 1.7 mph NW2.7 kmh NW 3.8 mph6.1 kmh 30.40 in1029.5 mb 0.00 in0.0 mm 0.00 in/hr0.0 mm/hr 0.00 in0.0 mm
12:45 AM 65.3°F18.5°C 60.4°F15.8°C 84% 0.9 mph N1.4 kmh N 2.2 mph3.5 kmh 30.40 in1029.5 mb 0.00 in0.0 mm 0.00 in/hr0.0 mm/hr 0.00 in0.0 mm
12:40 AM 65.3°F18.5°C 60.4°F15.8°C 84% 0.8 mph N1.3 kmh N 2.2 mph3.5 kmh 30.40 in1029.5 mb 0.00 in0.0 mm 0.00 in/hr0.0 mm/hr 0.00 in0.0 mm
12:35 AM 65.5°F18.6°C 60.2°F15.7°C 83% 0.8 mph NNE1.3 kmh NNE 1.6 mph2.6 kmh 30.40 in1029.5 mb 0.00 in0.0 mm 0.00 in/hr0.0 mm/hr 0.00 in0.0 mm
12:30 AM 65.5°F18.6°C 60.2°F15.7°C 83% 0.8 mph NNE1.3 kmh NNE 1.6 mph2.6 kmh 30.40 in1029.5 mb 0.00 in0.0 mm 0.00 in/hr0.0 mm/hr 0.00 in0.0 mm
12:25 AM 65.7°F18.7°C 60.4°F15.8°C 83% 0.8 mph N1.3 kmh N 1.6 mph2.6 kmh 30.40 in1029.5 mb 0.00 in0.0 mm 0.00 in/hr0.0 mm/hr 0.00 in0.0 mm
12:20 AM 65.8°F18.8°C 60.6°F15.9°C 83% 0.5 mph N0.8 kmh N 1.6 mph2.6 kmh 30.41 in1029.8 mb 0.00 in0.0 mm 0.00 in/hr0.0 mm/hr 0.00 in0.0 mm
12:15 AM 65.8°F18.8°C 60.6°F15.9°C 83% 0.6 mph N1.0 kmh N 1.6 mph2.6 kmh 30.41 in1029.8 mb 0.00 in0.0 mm 0.00 in/hr0.0 mm/hr 0.00 in0.0 mm
12:10 AM 65.8°F18.8°C 60.6°F15.9°C 83% 1.2 mph N1.9 kmh N 2.2 mph3.5 kmh 30.41 in1029.8 mb 0.00 in0.0 mm 0.00 in/hr0.0 mm/hr 0.00 in0.0 mm
12:05 AM 65.8°F18.8°C 60.6°F15.9°C 83% 1.2 mph NW1.9 kmh NW 2.2 mph3.5 kmh 30.41 in1029.8 mb 0.00 in0.0 mm 0.00 in/hr0.0 mm/hr 0.00 in0.0 mm
12:00 AM 66.0°F18.9°C 60.4°F15.8°C 82% 0.8 mph W1.3 kmh W 1.6 mph2.6 kmh 30.40 in1029.5 mb 0.00 in0.0 mm 0.00 in/hr0.0 mm/hr 0.00 in0.0 mm